createdAt,value
2019-03-26T00:00:51.649Z,97.98
2019-03-26T00:05:55.111Z,98.60
2019-03-26T00:10:58.529Z,99.11
2019-03-26T00:16:01.972Z,98.05
2019-03-26T00:21:05.413Z,100.00
2019-03-26T00:26:08.833Z,100.00
2019-03-26T00:31:12.243Z,100.00
2019-03-26T00:36:15.688Z,100.00
2019-03-26T00:41:19.163Z,100.00
2019-03-26T00:46:22.640Z,100.00
2019-03-26T00:51:26.068Z,100.00
2019-03-26T00:56:29.496Z,100.00
2019-03-26T01:01:32.925Z,100.00
2019-03-26T01:06:36.530Z,100.00
2019-03-26T01:11:39.954Z,100.00
2019-03-26T01:16:43.501Z,100.00
2019-03-26T01:21:46.969Z,100.00
2019-03-26T01:26:50.388Z,100.00
2019-03-26T01:31:53.802Z,100.00
2019-03-26T01:36:57.334Z,100.00
2019-03-26T01:42:01.030Z,100.00
2019-03-26T01:47:04.458Z,100.00
2019-03-26T01:52:07.879Z,98.45
2019-03-26T01:57:11.304Z,98.46
2019-03-26T02:02:14.719Z,97.99
2019-03-26T02:07:18.144Z,97.06
2019-03-26T02:12:21.769Z,97.71
2019-03-26T02:17:25.198Z,97.12
2019-03-26T02:22:28.653Z,96.50
2019-03-26T02:27:32.077Z,96.18
2019-03-26T02:32:35.506Z,95.05
2019-03-26T02:37:38.934Z,95.07
2019-03-26T02:42:42.335Z,94.69
2019-03-26T02:47:45.822Z,92.70
2019-03-26T02:52:49.259Z,92.66
2019-03-26T02:57:52.674Z,92.39
2019-03-26T03:02:56.106Z,92.21
2019-03-26T03:07:59.545Z,91.48
2019-03-26T03:13:02.969Z,91.54
2019-03-26T03:18:06.395Z,91.74
2019-03-26T03:23:09.836Z,92.27
2019-03-26T03:28:13.269Z,90.45
2019-03-26T03:33:16.675Z,90.16
2019-03-26T03:38:20.110Z,90.37
2019-03-26T03:43:23.581Z,90.50
2019-03-26T03:48:27.451Z,89.10
2019-03-26T03:53:31.746Z,89.13
2019-03-26T03:58:36.827Z,89.37
2019-03-26T04:03:40.435Z,88.33
2019-03-26T04:08:43.942Z,88.36
2019-03-26T04:13:47.388Z,88.17
2019-03-26T04:18:50.831Z,87.02
2019-03-26T04:23:54.278Z,85.63
2019-03-26T04:28:57.723Z,85.26
2019-03-26T04:34:01.157Z,84.45
2019-03-26T04:39:06.113Z,84.38
2019-03-26T04:44:09.562Z,83.97
2019-03-26T04:49:12.980Z,84.85
2019-03-26T04:54:16.434Z,83.67
2019-03-26T04:59:19.873Z,83.31
2019-03-26T05:04:23.295Z,83.35
2019-03-26T05:09:26.782Z,82.98
2019-03-26T05:14:30.227Z,83.21
2019-03-26T05:19:33.750Z,80.89
2019-03-26T05:24:37.173Z,82.07
2019-03-26T05:29:40.586Z,82.58
2019-03-26T05:34:44.053Z,83.50
2019-03-26T05:39:47.478Z,83.13
2019-03-26T05:44:50.902Z,82.80
2019-03-26T05:49:54.328Z,76.41
2019-03-26T05:54:57.816Z,77.39
2019-03-26T06:00:01.243Z,74.46
2019-03-26T06:05:07.014Z,74.94
2019-03-26T06:10:11.325Z,75.17
2019-03-26T06:15:15.578Z,74.50
2019-03-26T06:20:19.083Z,74.93
2019-03-26T06:25:22.507Z,75.73
2019-03-26T06:30:26.431Z,76.06
2019-03-26T06:35:29.814Z,75.99
2019-03-26T06:40:33.305Z,75.83
2019-03-26T06:45:36.781Z,74.88
2019-03-26T06:50:40.248Z,76.27
2019-03-26T06:55:43.659Z,75.26
2019-03-26T07:00:47.139Z,74.56
2019-03-26T07:05:50.564Z,75.18
2019-03-26T07:10:53.980Z,74.31
2019-03-26T07:15:57.403Z,73.88
2019-03-26T07:21:00.843Z,73.31
2019-03-26T07:26:04.338Z,70.88
2019-03-26T07:31:08.120Z,71.67
2019-03-26T07:36:11.538Z,73.98
2019-03-26T07:41:14.981Z,75.93
2019-03-26T07:46:18.394Z,76.48
2019-03-26T07:51:21.813Z,76.42
2019-03-26T07:56:25.232Z,76.27
2019-03-26T08:01:28.654Z,75.01
2019-03-26T08:06:32.085Z,76.58
2019-03-26T08:11:35.515Z,73.72
2019-03-26T08:16:38.936Z,70.55
2019-03-26T08:21:42.356Z,70.14
2019-03-26T08:26:45.814Z,68.82
2019-03-26T08:31:49.239Z,70.30
2019-03-26T08:36:53.037Z,68.25
2019-03-26T08:41:56.480Z,67.17
2019-03-26T08:46:59.911Z,68.95
2019-03-26T08:52:03.424Z,68.06
2019-03-26T08:57:06.843Z,67.40
2019-03-26T09:02:10.375Z,65.59
2019-03-26T09:07:13.786Z,67.07
2019-03-26T09:12:18.811Z,66.46
2019-03-26T09:17:23.001Z,66.35
2019-03-26T09:22:26.484Z,66.97
2019-03-26T09:27:29.895Z,67.43
2019-03-26T09:32:33.336Z,67.74
2019-03-26T09:37:36.758Z,68.73
2019-03-26T09:42:40.446Z,68.62
2019-03-26T09:47:43.900Z,70.52
2019-03-26T09:52:47.334Z,70.36
2019-03-26T09:57:50.823Z,71.12
2019-03-26T10:02:54.320Z,72.48
2019-03-26T10:07:57.732Z,72.09
2019-03-26T10:13:01.140Z,71.07
2019-03-26T10:18:04.696Z,69.94
2019-03-26T10:23:08.114Z,70.20
2019-03-26T10:28:11.522Z,69.12
2019-03-26T10:33:15.023Z,69.31
2019-03-26T10:38:18.442Z,69.58
2019-03-26T10:43:21.944Z,71.78
2019-03-26T10:48:25.384Z,75.10
2019-03-26T10:53:28.824Z,77.81
2019-03-26T10:58:32.401Z,73.87
2019-03-26T11:03:35.800Z,69.61
2019-03-26T11:08:39.230Z,69.29
2019-03-26T11:13:42.658Z,68.57
2019-03-26T11:18:46.080Z,69.81
2019-03-26T11:23:49.492Z,71.53
2019-03-26T11:28:53.266Z,69.62
2019-03-26T11:33:57.020Z,68.52
2019-03-26T11:39:00.501Z,67.55
2019-03-26T11:44:04.876Z,66.39
2019-03-26T11:49:08.496Z,67.44
2019-03-26T11:54:11.935Z,69.03
2019-03-26T11:59:15.434Z,71.88
2019-03-26T12:04:19.086Z,72.20
2019-03-26T12:09:22.516Z,75.27
2019-03-26T12:14:25.931Z,77.28
2019-03-26T12:19:29.349Z,83.36
2019-03-26T12:24:32.798Z,89.68
2019-03-26T12:29:36.227Z,89.62
2019-03-26T12:34:39.654Z,91.58
2019-03-26T12:39:44.298Z,93.59
2019-03-26T12:44:47.995Z,93.01
2019-03-26T12:49:51.431Z,89.65
2019-03-26T12:54:54.926Z,89.99
2019-03-26T12:59:58.363Z,88.48
2019-03-26T13:05:01.837Z,86.24
2019-03-26T13:10:13.827Z,85.10
2019-03-26T13:15:14.833Z,85.22
2019-03-26T13:20:18.306Z,85.20
2019-03-26T13:25:21.712Z,83.16
2019-03-26T13:30:25.204Z,82.68
2019-03-26T13:35:28.647Z,83.08
2019-03-26T13:40:32.056Z,83.33
2019-03-26T13:45:35.475Z,81.15
2019-03-26T13:50:38.958Z,82.94
2019-03-26T13:55:42.399Z,79.30
2019-03-26T14:00:46.049Z,80.71
2019-03-26T14:05:49.437Z,83.25
2019-03-26T14:10:52.840Z,90.10
2019-03-26T14:15:56.256Z,97.82
2019-03-26T14:20:59.682Z,98.39
2019-03-26T14:26:03.229Z,97.81
2019-03-26T14:31:06.687Z,100.00
2019-03-26T14:36:10.134Z,100.00
2019-03-26T14:41:13.559Z,99.63
2019-03-26T14:46:16.957Z,94.11
2019-03-26T14:51:22.873Z,95.58
2019-03-26T14:56:25.540Z,93.25
2019-03-26T15:01:29.062Z,91.42
2019-03-26T15:06:32.471Z,90.21
2019-03-26T15:11:35.899Z,88.39
2019-03-26T15:16:39.487Z,89.14
2019-03-26T15:21:42.906Z,88.71
2019-03-26T15:26:47.386Z,88.22
2019-03-26T15:31:50.833Z,86.27
2019-03-26T15:36:54.432Z,87.25
2019-03-26T15:41:57.870Z,88.27
2019-03-26T15:47:01.285Z,89.12
2019-03-26T15:52:04.711Z,88.61
2019-03-26T15:57:08.136Z,89.24
2019-03-26T16:02:11.582Z,89.34
2019-03-26T16:07:15.025Z,88.64
2019-03-26T16:12:18.455Z,88.32
2019-03-26T16:17:21.961Z,88.18
2019-03-26T16:22:25.372Z,87.62
2019-03-26T16:27:28.974Z,86.85
2019-03-26T16:32:33.272Z,87.56
2019-03-26T16:37:36.708Z,88.12
2019-03-26T16:42:40.126Z,87.17
2019-03-26T16:47:43.551Z,88.20
2019-03-26T16:52:49.941Z,87.94
2019-03-26T16:57:55.731Z,87.91
2019-03-26T17:03:00.527Z,88.26
2019-03-26T17:08:04.007Z,88.28
2019-03-26T17:13:09.069Z,88.75
2019-03-26T17:18:12.499Z,87.68
2019-03-26T17:23:15.917Z,88.71
2019-03-26T17:28:19.329Z,87.81
2019-03-26T17:33:22.786Z,88.14
2019-03-26T17:38:26.195Z,87.46
2019-03-26T17:43:29.631Z,85.88
2019-03-26T17:48:33.255Z,87.07
2019-03-26T17:53:36.797Z,92.31
2019-03-26T17:58:40.309Z,96.11
2019-03-26T18:03:43.741Z,95.89
2019-03-26T18:08:47.172Z,97.17
2019-03-26T18:13:50.601Z,97.53
2019-03-26T18:18:56.448Z,99.22
2019-03-26T18:24:00.412Z,98.12
2019-03-26T18:29:03.931Z,99.10
2019-03-26T18:34:07.421Z,100.00
2019-03-26T18:39:10.949Z,100.00
2019-03-26T18:44:17.088Z,100.00
2019-03-26T18:49:23.597Z,100.00
2019-03-26T18:54:27.054Z,100.00
2019-03-26T18:59:30.558Z,100.00
2019-03-26T19:04:48.412Z,100.00
2019-03-26T19:09:41.092Z,100.00
2019-03-26T19:14:47.182Z,100.00
2019-03-26T19:19:51.540Z,100.00
2019-03-26T19:25:01.017Z,100.00
2019-03-26T19:30:20.950Z,100.00
2019-03-26T19:35:25.512Z,100.00
2019-03-26T19:40:41.166Z,100.00
2019-03-26T19:45:46.177Z,99.39
2019-03-26T19:50:59.099Z,98.73
2019-03-26T19:56:05.589Z,98.86
2019-03-26T20:01:10.540Z,98.88
2019-03-26T20:06:14.254Z,98.04
2019-03-26T20:11:17.706Z,97.62
2019-03-26T20:16:27.254Z,96.62
2019-03-26T20:21:35.570Z,96.46
2019-03-26T20:26:40.822Z,94.97
2019-03-26T20:31:52.010Z,91.93
2019-03-26T20:36:58.618Z,89.99
2019-03-26T20:42:02.452Z,88.89
2019-03-26T20:47:06.107Z,91.47
2019-03-26T20:52:09.656Z,93.38
2019-03-26T20:57:18.348Z,94.08
2019-03-26T21:02:21.882Z,93.14
2019-03-26T21:07:32.224Z,94.62
2019-03-26T21:12:35.739Z,95.86
2019-03-26T21:17:47.914Z,97.34
2019-03-26T21:22:51.706Z,97.30
2019-03-26T21:27:55.134Z,98.13
2019-03-26T21:32:58.563Z,97.75
2019-03-26T21:38:02.001Z,98.03
2019-03-26T21:43:05.420Z,98.68
2019-03-26T21:48:09.284Z,98.30
2019-03-26T21:53:12.810Z,98.07
2019-03-26T21:58:16.410Z,97.46
2019-03-26T22:03:21.817Z,97.16
2019-03-26T22:08:25.206Z,97.04
2019-03-26T22:13:29.235Z,97.00
2019-03-26T22:18:32.646Z,96.62
2019-03-26T22:23:36.090Z,96.81
2019-03-26T22:28:39.533Z,96.83
2019-03-26T22:33:43.037Z,97.33
2019-03-26T22:38:46.460Z,96.64
2019-03-26T22:43:49.923Z,97.08
2019-03-26T22:48:53.365Z,97.32
2019-03-26T22:53:56.883Z,98.04
2019-03-26T22:59:00.291Z,97.33
2019-03-26T23:04:03.724Z,98.83
2019-03-26T23:09:08.001Z,99.47
2019-03-26T23:14:11.531Z,100.00
2019-03-26T23:19:14.949Z,100.00
2019-03-26T23:24:18.373Z,100.00
2019-03-26T23:29:21.831Z,100.00
2019-03-26T23:34:25.266Z,100.00
2019-03-26T23:39:28.677Z,100.00
2019-03-26T23:44:32.110Z,100.00
2019-03-26T23:49:35.536Z,100.00
2019-03-26T23:54:38.973Z,100.00
2019-03-26T23:59:42.457Z,100.00
